TimeCST,TemperatureF,Dew PointF,Humidity,Sea Level PressureIn,VisibilityMPH,Wind Direction,Wind SpeedMPH,Gust SpeedMPH,PrecipitationIn,Events,Conditions,WindDirDegrees,DateUTC
12:13 AM,15.8,12.2,86,29.94,10.0,Calm,Calm,-,N/A,,Overcast,0,2013-01-06 06:13:00
12:33 AM,15.8,12.2,86,29.94,10.0,Calm,Calm,-,N/A,,Overcast,0,2013-01-06 06:33:00
12:53 AM,15.8,12.2,86,29.95,10.0,Calm,Calm,-,N/A,,Overcast,0,2013-01-06 06:53:00
1:13 AM,14.0,10.4,86,29.95,10.0,WNW,3.5,-,N/A,,Overcast,300,2013-01-06 07:13:00
1:33 AM,14.0,10.4,86,29.96,10.0,WNW,3.5,-,N/A,,Overcast,300,2013-01-06 07:33:00
1:53 AM,14.0,10.4,86,29.96,10.0,Calm,Calm,-,N/A,,Overcast,0,2013-01-06 07:53:00
2:13 AM,14.0,10.4,86,29.97,10.0,Calm,Calm,-,N/A,,Overcast,0,2013-01-06 08:13:00
2:34 AM,14.0,10.4,86,29.97,10.0,Calm,Calm,-,N/A,,Overcast,0,2013-01-06 08:34:00
2:53 AM,12.2,10.4,92,29.98,10.0,Calm,Calm,-,N/A,,Overcast,0,2013-01-06 08:53:00
3:13 AM,12.2,10.4,92,30.00,10.0,NW,4.6,-,N/A,,Overcast,310,2013-01-06 09:13:00
3:33 AM,12.2,8.6,85,30.00,7.0,Calm,Calm,-,N/A,Snow,Light Snow,0,2013-01-06 09:33:00
3:53 AM,12.2,8.6,85,30.00,7.0,WNW,3.5,-,N/A,Snow,Light Snow,300,2013-01-06 09:53:00
4:13 AM,10.4,8.6,92,30.00,10.0,NW,3.5,-,N/A,Snow,Light Snow,310,2013-01-06 10:13:00
4:33 AM,10.4,8.6,92,30.01,10.0,Calm,Calm,-,N/A,,Overcast,0,2013-01-06 10:33:00
4:53 AM,10.4,6.8,85,30.02,10.0,NNW,3.5,-,N/A,Snow,Light Snow,330,2013-01-06 10:53:00
5:13 AM,10.4,6.8,85,30.02,10.0,Calm,Calm,-,N/A,Snow,Light Snow,0,2013-01-06 11:13:00
5:33 AM,10.4,6.8,85,30.03,10.0,Calm,Calm,-,N/A,Snow,Light Snow,0,2013-01-06 11:33:00
5:53 AM,10.4,6.8,85,30.03,10.0,NW,3.5,-,N/A,,Overcast,310,2013-01-06 11:53:00
6:13 AM,10.4,6.8,85,30.04,10.0,NW,3.5,-,N/A,Snow,Light Snow,310,2013-01-06 12:13:00
6:33 AM,10.4,6.8,85,30.05,10.0,WNW,4.6,-,N/A,Snow,Light Snow,300,2013-01-06 12:33:00
6:53 AM,10.4,6.8,85,30.06,10.0,Calm,Calm,-,N/A,,Overcast,0,2013-01-06 12:53:00
7:13 AM,10.4,6.8,85,30.05,10.0,Calm,Calm,-,N/A,,Overcast,0,2013-01-06 13:13:00
7:53 AM,8.6,6.8,92,30.07,10.0,Calm,Calm,-,N/A,,Overcast,0,2013-01-06 13:53:00
8:13 AM,8.6,5.0,85,30.08,10.0,Calm,Calm,-,N/A,Snow,Light Snow,0,2013-01-06 14:13:00
8:34 AM,8.6,5.0,85,30.08,10.0,Calm,Calm,-,N/A,,Mostly Cloudy,0,2013-01-06 14:34:00
8:53 AM,6.8,3.2,85,30.07,10.0,Calm,Calm,-,N/A,,Scattered Clouds,0,2013-01-06 14:53:00
9:33 AM,6.8,3.2,85,30.09,10.0,Calm,Calm,-,N/A,,Clear,0,2013-01-06 15:33:00
9:53 AM,6.8,3.2,85,30.09,10.0,Calm,Calm,-,N/A,,Clear,0,2013-01-06 15:53:00
10:13 AM,8.6,5.0,85,30.09,10.0,Calm,Calm,-,N/A,,Clear,0,2013-01-06 16:13:00
10:33 AM,8.6,5.0,85,30.10,10.0,Calm,Calm,-,N/A,,Clear,0,2013-01-06 16:33:00
10:53 AM,10.4,6.8,85,30.09,10.0,Calm,Calm,-,N/A,,Clear,0,2013-01-06 16:53:00
11:14 AM,10.4,6.8,85,30.09,10.0,Calm,Calm,-,N/A,,Clear,0,2013-01-06 17:14:00
11:33 AM,10.4,6.8,85,30.09,10.0,Calm,Calm,-,N/A,,Clear,0,2013-01-06 17:33:00
11:53 AM,10.4,8.6,92,30.08,10.0,NW,3.5,-,N/A,,Clear,310,2013-01-06 17:53:00
12:13 PM,12.2,8.6,85,30.08,10.0,NW,3.5,-,N/A,,Clear,310,2013-01-06 18:13:00
12:33 PM,12.2,8.6,85,30.06,10.0,Calm,Calm,-,N/A,,Clear,0,2013-01-06 18:33:00
12:53 PM,14.0,8.6,79,30.05,10.0,Calm,Calm,-,N/A,,Clear,0,2013-01-06 18:53:00
1:13 PM,14.0,8.6,79,30.06,10.0,Calm,Calm,-,N/A,,Clear,0,2013-01-06 19:13:00
1:33 PM,14.0,8.6,79,30.05,10.0,Calm,Calm,-,N/A,,Clear,0,2013-01-06 19:33:00
1:53 PM,15.8,8.6,73,30.05,10.0,Calm,Calm,-,N/A,,Clear,0,2013-01-06 19:53:00
2:13 PM,17.6,8.6,68,30.04,10.0,Calm,Calm,-,N/A,,Clear,0,2013-01-06 20:13:00
2:33 PM,17.6,6.8,63,30.05,10.0,Calm,Calm,-,N/A,,Clear,0,2013-01-06 20:33:00
2:53 PM,17.6,8.6,68,30.05,10.0,Calm,Calm,-,N/A,,Clear,0,2013-01-06 20:53:00
3:13 PM,17.6,8.6,68,30.04,10.0,SSE,3.5,-,N/A,,Clear,160,2013-01-06 21:13:00
3:33 PM,17.6,8.6,68,30.05,10.0,South,3.5,-,N/A,,Clear,170,2013-01-06 21:33:00
3:53 PM,15.8,8.6,73,30.04,10.0,SE,4.6,-,N/A,,Clear,140,2013-01-06 21:53:00
4:13 PM,15.8,8.6,73,30.02,10.0,SE,3.5,-,N/A,,Clear,140,2013-01-06 22:13:00
4:53 PM,14.0,8.6,79,30.02,10.0,Calm,Calm,-,N/A,,Clear,0,2013-01-06 22:53:00
5:13 PM,12.2,6.8,79,30.00,10.0,SE,3.5,-,N/A,,Clear,130,2013-01-06 23:13:00
5:33 PM,12.2,6.8,79,30.00,10.0,SE,3.5,-,N/A,,Clear,140,2013-01-06 23:33:00
5:53 PM,12.2,6.8,79,29.98,10.0,SE,5.8,-,N/A,,Clear,140,2013-01-06 23:53:00
6:13 PM,12.2,6.8,79,29.98,10.0,SE,3.5,-,N/A,,Clear,140,2013-01-07 00:13:00
6:33 PM,12.2,6.8,79,29.97,10.0,SSE,4.6,-,N/A,,Clear,150,2013-01-07 00:33:00
6:53 PM,12.2,6.8,79,29.97,10.0,SSE,5.8,-,N/A,,Clear,150,2013-01-07 00:53:00
7:13 PM,12.2,6.8,79,29.97,10.0,SSE,5.8,-,N/A,,Clear,160,2013-01-07 01:13:00
7:33 PM,12.2,6.8,79,29.96,10.0,SSE,5.8,-,N/A,,Clear,160,2013-01-07 01:33:00
7:53 PM,12.2,6.8,79,29.94,10.0,SSE,6.9,-,N/A,,Clear,160,2013-01-07 01:53:00
8:13 PM,14.0,6.8,73,29.93,10.0,SSE,9.2,-,N/A,,Clear,160,2013-01-07 02:13:00
8:34 PM,14.0,6.8,73,29.92,10.0,SSE,10.4,-,N/A,,Clear,160,2013-01-07 02:34:00
8:53 PM,14.0,6.8,73,29.91,10.0,SSE,11.5,-,N/A,,Clear,150,2013-01-07 02:53:00
9:53 PM,15.8,6.8,68,29.87,10.0,SSE,10.4,-,N/A,,Clear,160,2013-01-07 03:53:00
10:13 PM,15.8,6.8,68,29.85,10.0,SSE,10.4,17.3,N/A,,Clear,160,2013-01-07 04:13:00
10:33 PM,15.8,8.6,73,29.83,10.0,SSE,10.4,-,N/A,,Clear,160,2013-01-07 04:33:00
10:54 PM,15.8,8.6,73,29.80,10.0,SE,11.5,16.1,N/A,,Clear,140,2013-01-07 04:54:00
11:33 PM,15.8,8.6,73,29.80,10.0,SSE,11.5,18.4,N/A,,Clear,160,2013-01-07 05:33:00
11:53 PM,15.8,8.6,73,29.80,10.0,South,11.5,17.3,N/A,,Clear,170,2013-01-07 05:53:00